Time;durP1;ratioP1;P1;durP2;ratioP2;P2;SDS_P1;SDS_P2;PMS_P1;PMS_P2;Temp;Humidity;BMP_temperature;BMP_pressure;BME280_temperature;BME280_humidity;BME280_pressure;Samples;Min_cycle;Max_cycle;Signal;HPM_P1;HPM_P2
2023/08/02 00:01:07;;;;;;;6.47;1.80;;;16.00;94.30;;;;;;5132920;27;20076;-84
2023/08/02 00:03:32;;;;;;;6.47;2.10;;;15.90;94.40;;;;;;5134143;27;20059;-84
2023/08/02 00:05:58;;;;;;;6.55;2.42;;;15.80;94.60;;;;;;5133319;27;20323;-83
2023/08/02 00:08:25;;;;;;;4.45;1.80;;;15.70;95.00;;;;;;5134887;27;20038;-82
2023/08/02 00:10:52;;;;;;;7.25;2.03;;;15.70;94.90;;;;;;5134910;27;20019;-84
2023/08/02 00:13:17;;;;;;;5.72;2.17;;;15.60;95.10;;;;;;5134334;27;20027;-84
2023/08/02 00:15:43;;;;;;;5.45;2.30;;;15.60;95.10;;;;;;5135461;27;20429;-84
2023/08/02 00:18:09;;;;;;;6.95;2.17;;;15.60;95.00;;;;;;5118543;27;20059;-83
2023/08/02 00:20:37;;;;;;;7.05;1.90;;;15.50;95.20;;;;;;5133728;27;20411;-84
2023/08/02 00:23:03;;;;;;;5.15;2.20;;;15.50;95.40;;;;;;5134143;27;20035;-85
2023/08/02 00:25:29;;;;;;;4.80;1.85;;;15.40;95.70;;;;;;5135401;27;20023;-83
2023/08/02 00:27:55;;;;;;;4.68;1.85;;;15.30;95.50;;;;;;5133952;27;20029;-82
2023/08/02 00:30:20;;;;;;;5.72;2.17;;;15.30;95.80;;;;;;5135636;27;20388;-84
2023/08/02 00:32:47;;;;;;;5.13;2.38;;;15.40;95.80;;;;;;5134196;27;20196;-83
2023/08/02 00:35:13;;;;;;;6.43;2.53;;;15.30;96.00;;;;;;5133322;27;20117;-84
2023/08/02 00:37:40;;;;;;;5.97;2.13;;;15.30;96.00;;;;;;5134184;27;20094;-84
2023/08/02 00:40:07;;;;;;;5.28;2.30;;;15.20;96.20;;;;;;5117709;27;20084;-84
2023/08/02 00:42:32;;;;;;;6.07;2.08;;;15.20;96.30;;;;;;5134020;27;20331;-84
2023/08/02 00:44:58;;;;;;;7.03;2.28;;;15.20;96.20;;;;;;5135519;27;20038;-84
2023/08/02 00:47:24;;;;;;;6.78;2.10;;;15.20;96.30;;;;;;5133762;27;20019;-84
2023/08/02 00:49:50;;;;;;;7.13;2.20;;;15.00;96.60;;;;;;5131372;27;20015;-83
2023/08/02 00:52:16;;;;;;;8.27;2.20;;;14.90;96.80;;;;;;5134735;27;20080;-84
2023/08/02 00:54:42;;;;;;;5.07;1.98;;;14.90;97.00;;;;;;5136001;27;20052;-84
2023/08/02 00:57:10;;;;;;;4.10;2.00;;;14.80;97.20;;;;;;5134961;27;20027;-84
2023/08/02 00:59:40;;;;;;;6.25;2.20;;;14.70;97.30;;;;;;5135551;27;20055;-84
2023/08/02 01:02:06;;;;;;;4.30;2.00;;;14.60;97.50;;;;;;5133093;27;20027;-83
2023/08/02 01:04:36;;;;;;;4.70;2.25;;;14.40;97.70;;;;;;5133979;27;20024;-83
2023/08/02 01:07:40;;;;;;;8.15;2.45;;;14.40;97.70;;;;;;5131182;27;20028;-84
2023/08/02 01:10:15;;;;;;;6.03;2.17;;;14.40;97.70;;;;;;5095667;27;20038;-84
2023/08/02 01:12:45;;;;;;;5.75;2.10;;;14.40;97.70;;;;;;5123536;27;20019;-84
2023/08/02 01:15:14;;;;;;;5.22;2.15;;;14.30;97.80;;;;;;5131912;27;20051;-85
2023/08/02 01:17:41;;;;;;;6.25;2.88;;;14.30;97.90;;;;;;5115367;28;20026;-84
2023/08/02 01:20:09;;;;;;;6.90;2.50;;;14.20;98.00;;;;;;5131474;27;20404;-84
2023/08/02 01:22:34;;;;;;;4.93;2.42;;;14.20;98.00;;;;;;5133352;28;20071;-84
2023/08/02 01:25:00;;;;;;;7.32;2.55;;;14.20;98.00;;;;;;5135361;28;20031;-84
2023/08/02 01:27:50;;;;;;;4.57;2.30;;;14.20;98.00;;;;;;5134831;27;20019;-84
2023/08/02 01:30:18;;;;;;;8.18;2.80;;;14.20;98.00;;;;;;5116403;28;20159;-84
2023/08/02 01:32:44;;;;;;;6.57;2.42;;;14.20;98.00;;;;;;5133637;28;20031;-84
2023/08/02 01:35:10;;;;;;;7.47;2.40;;;14.10;98.00;;;;;;5132373;28;20028;-84
2023/08/02 01:37:36;;;;;;;5.05;2.22;;;14.00;98.00;;;;;;5132838;28;20062;-84
2023/08/02 01:40:02;;;;;;;6.20;2.33;;;14.00;98.00;;;;;;5117298;28;20068;-84
2023/08/02 01:42:31;;;;;;;7.85;2.22;;;14.10;98.00;;;;;;5133405;28;20090;-84
2023/08/02 01:44:57;;;;;;;5.07;2.10;;;14.20;98.00;;;;;;5127100;27;20066;-84
2023/08/02 01:47:25;;;;;;;6.82;2.80;;;14.20;98.00;;;;;;5132719;27;20081;-85
2023/08/02 01:49:51;;;;;;;8.48;2.50;;;14.20;97.90;;;;;;5133674;28;20106;-84
2023/08/02 01:52:16;;;;;;;5.63;2.25;;;14.30;97.80;;;;;;5133012;28;20098;-85
2023/08/02 01:54:42;;;;;;;6.22;2.28;;;14.30;97.70;;;;;;5132139;28;20035;-84
2023/08/02 01:57:07;;;;;;;5.43;2.42;;;14.30;97.70;;;;;;5131911;28;20479;-84
2023/08/02 01:59:33;;;;;;;4.75;2.20;;;14.30;97.80;;;;;;5132401;27;20031;-84
2023/08/02 02:01:58;;;;;;;6.70;2.28;;;14.30;97.70;;;;;;5134271;28;20113;-83
2023/08/02 02:04:24;;;;;;;5.53;2.40;;;14.20;97.80;;;;;;5133733;28;20437;-85
2023/08/02 02:06:50;;;;;;;5.72;2.67;;;14.20;97.80;;;;;;5131907;28;20424;-84
2023/08/02 02:09:15;;;;;;;5.80;2.42;;;14.20;97.80;;;;;;5130414;27;20020;-85
2023/08/02 02:11:41;;;;;;;6.97;2.78;;;14.40;97.60;;;;;;5134405;27;20090;-85
2023/08/02 02:14:06;;;;;;;8.57;2.92;;;14.50;97.30;;;;;;5138090;27;20030;-84
2023/08/02 02:16:32;;;;;;;5.80;2.20;;;14.60;97.10;;;;;;5135847;27;20062;-85
2023/08/02 02:18:57;;;;;;;5.97;3.20;;;14.60;96.90;;;;;;5131508;27;20415;-83
2023/08/02 02:21:23;;;;;;;8.27;2.78;;;14.70;96.90;;;;;;5136385;27;20023;-83
2023/08/02 02:23:51;;;;;;;7.97;2.88;;;14.70;97.00;;;;;;5137278;27;20027;-83
2023/08/02 02:26:17;;;;;;;6.40;2.60;;;14.60;96.90;;;;;;5138110;27;20040;-83
2023/08/02 02:28:42;;;;;;;6.53;2.80;;;14.60;97.00;;;;;;5138093;27;20020;-85
2023/08/02 02:31:08;;;;;;;6.07;2.47;;;14.50;97.10;;;;;;5121510;27;20110;-85
2023/08/02 02:33:33;;;;;;;5.15;2.45;;;14.40;97.20;;;;;;5136167;27;20076;-84
2023/08/02 02:36:04;;;;;;;6.25;2.20;;;14.30;97.40;;;;;;5137508;27;20030;-85
2023/08/02 02:38:31;;;;;;;5.93;2.25;;;14.30;97.70;;;;;;5134332;27;20019;-85
2023/08/02 02:40:57;;;;;;;5.53;2.55;;;14.20;97.80;;;;;;5136818;27;20118;-85
2023/08/02 02:43:22;;;;;;;5.65;2.53;;;14.20;97.70;;;;;;5132660;27;20495;-85
2023/08/02 02:45:48;;;;;;;7.82;2.50;;;14.20;97.80;;;;;;5137732;27;20027;-85
2023/08/02 02:48:13;;;;;;;11.15;3.10;;;14.20;97.80;;;;;;5134293;27;20044;-85
2023/08/02 02:50:39;;;;;;;5.68;2.15;;;14.30;97.80;;;;;;5134411;27;20031;-84
2023/08/02 02:53:04;;;;;;;6.45;2.67;;;14.40;97.70;;;;;;5135161;27;20047;-85
2023/08/02 02:55:30;;;;;;;8.30;2.70;;;14.50;97.40;;;;;;5116668;27;20027;-85
2023/08/02 02:57:56;;;;;;;7.63;2.75;;;14.60;97.40;;;;;;5135046;27;20080;-85
2023/08/02 03:00:21;;;;;;;5.55;2.60;;;14.70;97.20;;;;;;5135626;27;20030;-85
2023/08/02 03:02:47;;;;;;;4.38;2.03;;;14.70;97.00;;;;;;5134097;27;20030;-84
2023/08/02 03:05:12;;;;;;;5.50;2.63;;;14.80;96.90;;;;;;5135523;27;20380;-85
2023/08/02 03:07:38;;;;;;;4.85;2.35;;;14.80;96.80;;;;;;5135452;27;20031;-85
2023/08/02 03:10:04;;;;;;;5.93;2.30;;;14.90;96.70;;;;;;5133311;27;20027;-85
2023/08/02 03:12:30;;;;;;;6.07;2.17;;;14.90;96.50;;;;;;5135067;27;20023;-86
2023/08/02 03:14:55;;;;;;;6.35;2.70;;;14.90;96.50;;;;;;5138060;27;20035;-85
2023/08/02 03:17:21;;;;;;;6.82;2.50;;;15.00;96.50;;;;;;5138177;27;20102;-85
2023/08/02 03:19:46;;;;;;;8.60;2.60;;;15.00;96.30;;;;;;5124666;27;20110;-85
2023/08/02 03:22:12;;;;;;;8.32;2.72;;;15.10;96.00;;;;;;5117791;27;20311;-85
2023/08/02 03:24:37;;;;;;;6.55;3.25;;;15.20;96.00;;;;;;5136188;27;20035;-87
2023/08/02 03:27:03;;;;;;;6.45;2.50;;;15.20;95.90;;;;;;5137199;27;20324;-86
2023/08/02 03:29:29;;;;;;;6.55;2.80;;;15.20;95.90;;;;;;5137090;27;20024;-86
2023/08/02 03:31:54;;;;;;;6.50;2.50;;;15.30;95.70;;;;;;5136833;27;20047;-86
2023/08/02 03:34:20;;;;;;;6.97;2.70;;;15.30;95.70;;;;;;5120428;27;20023;-86
2023/08/02 03:36:46;;;;;;;6.80;2.70;;;15.30;95.60;;;;;;5118902;27;20030;-86
2023/08/02 03:39:11;;;;;;;5.32;2.80;;;15.40;95.70;;;;;;5138684;27;20055;-86
2023/08/02 03:41:37;;;;;;;5.90;2.28;;;15.40;95.60;;;;;;5138175;27;20446;-86
2023/08/02 03:44:03;;;;;;;5.80;2.90;;;15.40;95.70;;;;;;5138477;27;20020;-86
2023/08/02 03:46:29;;;;;;;7.72;2.47;;;15.40;95.40;;;;;;5136758;27;20034;-86
2023/08/02 03:48:54;;;;;;;5.00;2.53;;;15.50;95.60;;;;;;5137940;27;20027;-85
2023/08/02 03:51:20;;;;;;;8.18;2.70;;;15.50;95.70;;;;;;5136528;27;20058;-85
2023/08/02 03:53:46;;;;;;;5.93;2.80;;;15.40;95.90;;;;;;5136070;27;20044;-85
2023/08/02 03:56:11;;;;;;;5.07;2.83;;;15.40;95.80;;;;;;5135511;27;20023;-85
2023/08/02 03:58:37;;;;;;;5.50;2.63;;;15.40;95.80;;;;;;5135234;27;20030;-85
2023/08/02 04:01:03;;;;;;;6.10;2.60;;;15.40;95.80;;;;;;5136401;27;20023;-85
2023/08/02 04:03:28;;;;;;;5.85;2.53;;;15.40;96.10;;;;;;5133708;27;20327;-85
2023/08/02 04:05:54;;;;;;;6.65;2.85;;;15.40;96.10;;;;;;5136534;27;20028;-85
2023/08/02 04:08:19;;;;;;;6.63;2.85;;;15.50;96.40;;;;;;5136110;27;20033;-85
2023/08/02 04:10:45;;;;;;;5.97;2.92;;;15.40;97.20;;;;;;5134584;27;20023;-85
2023/08/02 04:13:10;;;;;;;5.72;2.95;;;15.30;97.60;;;;;;5135539;27;20431;-86
2023/08/02 04:15:37;;;;;;;6.82;2.75;;;15.20;97.80;;;;;;5133397;27;20072;-85
2023/08/02 04:18:02;;;;;;;5.63;2.65;;;15.10;97.80;;;;;;5135803;27;20356;-85
2023/08/02 04:20:29;;;;;;;5.88;2.95;;;15.10;98.00;;;;;;5134880;27;20063;-84
2023/08/02 04:22:55;;;;;;;5.75;2.63;;;15.00;98.00;;;;;;5125498;27;20084;-87
2023/08/02 04:25:21;;;;;;;6.85;2.92;;;14.90;98.00;;;;;;5135403;27;20039;-87
2023/08/02 04:27:46;;;;;;;7.38;3.38;;;14.90;98.00;;;;;;5111709;27;20023;-87
2023/08/02 04:30:12;;;;;;;5.38;2.70;;;14.90;97.80;;;;;;5135270;27;20050;-87
2023/08/02 04:32:38;;;;;;;5.88;3.17;;;14.80;97.60;;;;;;5130152;27;20130;-89
2023/08/02 04:35:04;;;;;;;8.23;3.63;;;14.70;97.40;;;;;;5111345;27;20834;-89
2023/08/02 04:37:30;;;;;;;6.65;3.00;;;14.50;96.40;;;;;;5134551;27;20110;-91
2023/08/02 04:40:48;;;;;;;;;;;;;;;;;;;;;
2023/08/02 04:53:48;;;;;;;6.75;3.22;;;14.00;95.20;;;;;;5055734;28;20089;-93
2023/08/02 04:56:15;;;;;;;5.85;3.20;;;14.00;93.60;;;;;;5055967;28;20055;-90
2023/08/02 04:58:41;;;;;;;7.82;4.22;;;14.00;94.30;;;;;;5057575;28;20107;-89
2023/08/02 05:01:07;;;;;;;6.32;3.40;;;14.00;92.80;;;;;;5090123;27;20101;-89
2023/08/02 05:03:33;;;;;;;10.43;4.25;;;14.00;90.80;;;;;;5134410;27;20044;-89
2023/08/02 05:06:03;;;;;;;8.70;3.88;;;13.90;91.60;;;;;;5131058;27;20023;-89
2023/08/02 05:08:33;;;;;;;7.82;3.80;;;13.90;90.40;;;;;;5111587;27;20023;-90
2023/08/02 05:18:04;;;;;;;6.90;3.90;;;13.70;89.70;;;;;;5138410;27;20026;-95
2023/08/02 05:28:32;;;;;;;;;;;;;;;;;;;;;
2023/08/02 05:30:50;;;;;;;8.32;5.03;;;13.40;85.70;;;;;;5003084;28;20036;-91
2023/08/02 05:33:25;;;;;;;9.13;5.18;;;13.40;86.00;;;;;;5041146;28;20095;-94
2023/08/02 05:35:51;;;;;;;9.43;5.90;;;13.50;87.10;;;;;;5022607;28;20029;-90
2023/08/02 05:38:32;;;;;;;;;;;;;;;;;;;;;
2023/08/02 05:41:04;;;;;;;9.45;6.20;;;13.50;85.70;;;;;;5110400;28;20419;-90
2023/08/02 05:43:44;;;;;;;11.48;6.47;;;13.60;85.00;;;;;;5137039;28;20045;-90
2023/08/02 05:46:52;;;;;;;11.07;6.25;;;13.70;87.10;;;;;;5119996;27;20027;-90
2023/08/02 05:53:30;;;;;;;;;;;;;;;;;;;;;
2023/08/02 06:03:23;;;;;;;10.05;6.70;;;14.00;87.90;;;;;;4898440;28;20031;-90
2023/08/02 06:05:49;;;;;;;11.23;7.22;;;14.00;87.80;;;;;;4981455;28;20090;-88
2023/08/02 06:08:15;;;;;;;12.48;6.60;;;14.00;87.10;;;;;;5055145;28;20046;-89
2023/08/02 06:10:44;;;;;;;10.32;6.72;;;14.00;87.70;;;;;;5095123;28;20036;-89
2023/08/02 06:13:09;;;;;;;10.98;6.40;;;14.10;87.50;;;;;;5113842;28;20342;-90
2023/08/02 06:15:35;;;;;;;9.75;6.38;;;14.10;89.00;;;;;;5093723;28;20046;-89
2023/08/02 06:18:01;;;;;;;10.80;6.72;;;14.10;88.60;;;;;;5093710;28;20020;-90
2023/08/02 06:20:26;;;;;;;10.27;6.22;;;14.20;86.90;;;;;;5087026;28;20063;-89
2023/08/02 06:22:52;;;;;;;11.50;6.28;;;14.40;88.20;;;;;;5094275;28;20020;-90
2023/08/02 06:25:18;;;;;;;9.40;5.97;;;14.50;89.30;;;;;;5092778;28;20047;-89
2023/08/02 06:27:53;;;;;;;;;;;;;;;;;;;;;
2023/08/02 06:30:24;;;;;;;9.45;6.00;;;15.00;92.00;;;;;;5098160;28;20031;-91
2023/08/02 06:32:52;;;;;;;8.70;5.90;;;15.20;94.80;;;;;;5094728;28;20024;-88
2023/08/02 06:35:18;;;;;;;10.02;5.50;;;15.40;93.50;;;;;;5107616;28;20027;-87
2023/08/02 06:37:44;;;;;;;8.05;5.10;;;15.70;95.40;;;;;;5097797;28;20028;-90
2023/08/02 06:40:10;;;;;;;8.63;5.53;;;15.80;97.40;;;;;;5095886;28;20032;-90
2023/08/02 06:42:36;;;;;;;7.57;5.43;;;15.60;95.00;;;;;;5094177;28;20408;-89
2023/08/02 06:45:02;;;;;;;8.88;5.68;;;15.50;97.20;;;;;;5105845;28;20103;-89
2023/08/02 06:47:27;;;;;;;8.63;5.80;;;15.50;97.30;;;;;;5101454;28;20024;-90
2023/08/02 06:49:53;;;;;;;10.15;5.57;;;15.40;95.10;;;;;;5096609;28;20478;-90
2023/08/02 06:52:19;;;;;;;8.70;5.40;;;15.50;94.90;;;;;;5097964;28;20016;-89
2023/08/02 06:54:44;;;;;;;8.13;5.43;;;15.40;95.70;;;;;;5104684;28;20055;-90
2023/08/02 06:57:11;;;;;;;10.15;5.78;;;15.30;95.60;;;;;;5115376;28;20420;-87
2023/08/02 06:59:36;;;;;;;7.70;5.07;;;15.30;93.50;;;;;;5116165;28;20024;-89
2023/08/02 07:02:02;;;;;;;9.93;5.05;;;15.30;94.50;;;;;;5111752;28;20051;-88
2023/08/02 07:04:28;;;;;;;8.23;4.55;;;15.40;93.90;;;;;;5114640;28;20026;-89
2023/08/02 07:06:53;;;;;;;6.82;4.72;;;15.60;95.90;;;;;;5113333;28;20111;-89
2023/08/02 07:09:19;;;;;;;7.40;4.72;;;15.70;95.10;;;;;;5115160;28;20024;-88
2023/08/02 07:11:45;;;;;;;6.68;4.10;;;15.90;96.00;;;;;;5105045;28;20016;-85
2023/08/02 07:14:10;;;;;;;6.15;3.95;;;16.20;98.00;;;;;;5104061;28;20024;-86
2023/08/02 07:16:36;;;;;;;7.82;4.00;;;16.40;97.80;;;;;;5113418;27;20023;-86
2023/08/02 07:19:02;;;;;;;7.20;4.57;;;16.50;98.00;;;;;;5109933;28;20035;-87
2023/08/02 07:21:29;;;;;;;6.88;4.10;;;16.50;97.70;;;;;;5115504;28;20020;-88
2023/08/02 07:23:55;;;;;;;8.02;4.13;;;16.30;97.50;;;;;;5116425;28;20081;-87
2023/08/02 07:26:22;;;;;;;6.07;3.88;;;16.20;97.20;;;;;;5113754;27;20038;-87
2023/08/02 07:28:48;;;;;;;7.65;3.90;;;16.10;97.10;;;;;;5116700;28;20084;-88
2023/08/02 07:31:14;;;;;;;6.80;4.07;;;16.00;97.90;;;;;;5118414;28;20020;-88
2023/08/02 07:33:40;;;;;;;6.38;3.50;;;16.00;97.20;;;;;;5116748;27;20285;-87
2023/08/02 07:36:16;;;;;;;7.45;3.90;;;16.00;96.30;;;;;;5129988;27;20030;-90
2023/08/02 07:38:43;;;;;;;8.27;4.43;;;16.10;97.20;;;;;;5130586;27;20028;-89
2023/08/02 07:44:58;;;;;;;5.82;3.50;;;16.20;96.90;;;;;;5070407;28;20027;-91
2023/08/02 07:47:24;;;;;;;6.82;3.47;;;16.40;95.90;;;;;;5117159;28;20289;-90
2023/08/02 07:49:51;;;;;;;6.20;3.78;;;16.50;97.80;;;;;;5112052;28;20069;-90
2023/08/02 07:52:16;;;;;;;6.07;3.70;;;16.70;97.80;;;;;;5110245;28;20024;-90
2023/08/02 07:54:50;;;;;;;6.65;4.28;;;16.60;98.00;;;;;;5091967;28;20127;-89
2023/08/02 07:57:16;;;;;;;6.70;3.78;;;16.50;96.40;;;;;;5091352;28;20024;-90
2023/08/02 07:59:41;;;;;;;5.57;3.42;;;16.40;97.20;;;;;;5087551;28;20031;-89
2023/08/02 08:02:07;;;;;;;6.43;3.53;;;16.30;97.30;;;;;;5093228;28;20039;-90
2023/08/02 08:04:32;;;;;;;6.30;3.42;;;16.30;96.70;;;;;;5095167;28;20463;-90
2023/08/02 08:06:58;;;;;;;6.13;2.92;;;16.30;95.80;;;;;;5085092;28;20081;-90
2023/08/02 08:09:24;;;;;;;5.15;3.00;;;16.30;97.50;;;;;;5093340;28;20031;-89
2023/08/02 08:11:50;;;;;;;5.88;3.22;;;16.30;96.20;;;;;;5092910;28;20380;-85
2023/08/02 08:14:18;;;;;;;5.10;3.10;;;16.30;95.70;;;;;;5095187;28;20059;-86
2023/08/02 08:16:44;;;;;;;5.60;3.10;;;16.20;96.70;;;;;;5096288;28;20031;-86
2023/08/02 08:19:09;;;;;;;4.97;2.80;;;16.10;94.50;;;;;;5096332;28;20027;-89
2023/08/02 08:21:35;;;;;;;5.05;3.10;;;16.00;95.30;;;;;;5094961;28;20058;-88
2023/08/02 08:24:00;;;;;;;5.45;3.25;;;15.90;93.40;;;;;;5108800;28;20080;-89
2023/08/02 08:26:26;;;;;;;5.50;3.33;;;15.70;92.80;;;;;;5116375;28;20463;-89
2023/08/02 08:28:52;;;;;;;6.47;3.17;;;15.70;91.10;;;;;;5094872;28;20404;-90
2023/08/02 08:31:18;;;;;;;5.97;3.40;;;15.60;92.10;;;;;;5096126;28;20450;-87
2023/08/02 08:33:44;;;;;;;6.00;3.40;;;15.60;92.10;;;;;;5095915;28;20032;-90
2023/08/02 08:36:13;;;;;;;6.30;3.17;;;15.60;90.40;;;;;;5094833;28;20024;-90
2023/08/02 08:38:39;;;;;;;5.38;3.40;;;15.70;90.40;;;;;;5095891;28;20286;-89
2023/08/02 08:41:06;;;;;;;6.68;3.67;;;15.80;92.10;;;;;;5092847;28;20058;-90
2023/08/02 08:43:33;;;;;;;6.05;3.70;;;15.80;91.40;;;;;;5078149;28;20024;-89
2023/08/02 08:45:59;;;;;;;7.65;4.38;;;15.80;92.30;;;;;;5086969;28;20056;-88
2023/08/02 08:48:26;;;;;;;7.63;4.45;;;15.90;92.50;;;;;;5095808;28;20020;-88
2023/08/02 08:50:55;;;;;;;9.73;3.97;;;16.10;93.40;;;;;;5075331;28;20023;-88
2023/08/02 08:53:43;;;;;;;6.50;4.15;;;16.30;94.70;;;;;;5024291;28;1147765;-86
2023/08/02 08:56:09;;;;;;;8.52;4.40;;;16.60;95.80;;;;;;5109740;28;20023;-86
2023/08/02 08:58:36;;;;;;;7.30;3.72;;;16.70;96.40;;;;;;5116565;28;20024;-85
2023/08/02 09:01:05;;;;;;;8.25;4.18;;;16.90;98.00;;;;;;5116720;28;20039;-86
2023/08/02 09:03:32;;;;;;;6.47;4.00;;;17.20;98.00;;;;;;5106180;28;20024;-86
2023/08/02 09:06:03;;;;;;;11.43;4.63;;;17.40;98.00;;;;;;5114463;28;20112;-85
2023/08/02 09:08:38;;;;;;;7.00;4.25;;;17.50;98.00;;;;;;5098600;28;20073;-85
2023/08/02 09:11:04;;;;;;;7.97;4.43;;;17.50;97.70;;;;;;5108024;28;20516;-84
2023/08/02 09:13:30;;;;;;;6.65;3.92;;;17.60;98.00;;;;;;5108774;28;20030;-82
2023/08/02 09:16:23;;;;;;;7.88;4.28;;;17.80;98.00;;;;;;5104965;28;20046;-84
2023/08/02 09:18:49;;;;;;;7.13;4.45;;;18.00;98.00;;;;;;5104839;28;20116;-84
2023/08/02 09:21:21;;;;;;;7.70;4.30;;;18.20;98.00;;;;;;5108379;28;20027;-84
2023/08/02 09:24:02;;;;;;;6.93;4.40;;;18.30;97.90;;;;;;5081334;28;20081;-83
2023/08/02 09:26:28;;;;;;;6.45;4.05;;;18.50;98.00;;;;;;5109370;28;20032;-83
2023/08/02 09:29:07;;;;;;;6.13;3.90;;;18.60;97.40;;;;;;5104643;28;20423;-83
2023/08/02 09:31:34;;;;;;;6.93;3.90;;;18.70;97.50;;;;;;5091999;28;20111;-83
2023/08/02 09:34:00;;;;;;;7.55;4.10;;;18.90;97.50;;;;;;5094430;28;20031;-82
2023/08/02 09:36:31;;;;;;;7.10;4.53;;;18.90;97.40;;;;;;5082680;28;20027;-83
2023/08/02 09:39:01;;;;;;;7.57;4.20;;;18.90;96.70;;;;;;5087407;28;20397;-83
2023/08/02 09:41:27;;;;;;;6.53;3.75;;;19.00;96.50;;;;;;5116196;28;20028;-83
2023/08/02 09:43:53;;;;;;;7.35;3.85;;;18.90;97.00;;;;;;5097459;28;20043;-82
2023/08/02 09:46:28;;;;;;;6.30;4.13;;;18.90;97.30;;;;;;5113251;28;20028;-81
2023/08/02 09:48:54;;;;;;;6.03;3.88;;;19.00;96.80;;;;;;5116211;28;20012;-83
2023/08/02 09:51:22;;;;;;;9.50;4.20;;;19.10;97.00;;;;;;5086495;28;20051;-86
2023/08/02 09:53:57;;;;;;;6.95;4.10;;;19.10;97.10;;;;;;5082897;28;20050;-84
2023/08/02 09:56:24;;;;;;;7.60;4.13;;;19.30;97.20;;;;;;5106737;28;20080;-84
2023/08/02 09:58:54;;;;;;;7.75;4.15;;;19.30;96.80;;;;;;5099901;28;20025;-82
2023/08/02 10:01:22;;;;;;;8.82;3.95;;;19.50;96.80;;;;;;5109124;28;20019;-84
2023/08/02 10:03:52;;;;;;;6.43;3.80;;;19.50;96.90;;;;;;5092659;28;20319;-83
2023/08/02 10:06:20;;;;;;;6.40;3.70;;;19.60;96.40;;;;;;5099852;28;20017;-83
2023/08/02 10:08:48;;;;;;;7.30;4.18;;;19.60;96.30;;;;;;5097891;28;20046;-82
2023/08/02 10:11:14;;;;;;;7.22;4.40;;;19.70;96.00;;;;;;5109819;28;20451;-84
2023/08/02 10:13:42;;;;;;;7.10;3.80;;;19.70;96.10;;;;;;5104804;28;20106;-83
2023/08/02 10:16:08;;;;;;;7.03;4.20;;;19.80;95.90;;;;;;5115441;28;20483;-83
2023/08/02 10:18:35;;;;;;;6.80;3.80;;;19.90;95.70;;;;;;5097283;28;20027;-82
2023/08/02 10:21:01;;;;;;;6.72;3.83;;;20.10;95.40;;;;;;5114324;28;20024;-86
2023/08/02 10:23:30;;;;;;;6.68;3.60;;;20.30;95.40;;;;;;5114245;28;20046;-83
2023/08/02 10:25:56;;;;;;;6.03;3.40;;;20.40;94.40;;;;;;5096414;28;20063;-84
2023/08/02 10:28:22;;;;;;;7.10;3.30;;;20.60;94.00;;;;;;5097228;28;20031;-83
2023/08/02 10:30:48;;;;;;;7.60;3.65;;;20.80;93.80;;;;;;5096878;28;20480;-83
2023/08/02 10:33:20;;;;;;;6.78;3.30;;;21.10;92.80;;;;;;5119275;28;20160;-84
2023/08/02 10:35:58;;;;;;;6.20;3.53;;;21.50;92.20;;;;;;5100236;28;20030;-85
2023/08/02 10:38:45;;;;;;;6.70;3.80;;;21.70;91.40;;;;;;5118758;28;20023;-84
2023/08/02 10:41:18;;;;;;;6.78;3.45;;;22.10;90.70;;;;;;5118241;28;20032;-84
2023/08/02 10:43:57;;;;;;;5.88;3.20;;;22.30;90.30;;;;;;5100931;28;20023;-84
2023/08/02 10:46:24;;;;;;;5.65;3.22;;;22.40;89.70;;;;;;5118595;28;20140;-83
2023/08/02 10:48:51;;;;;;;5.68;3.15;;;22.70;89.70;;;;;;5118827;28;20016;-87
2023/08/02 10:51:34;;;;;;;4.55;2.75;;;23.70;87.90;;;;;;5117467;28;20047;-83
2023/08/02 10:54:11;;;;;;;5.40;2.83;;;23.90;88.00;;;;;;5100445;28;20112;-83
2023/08/02 10:56:55;;;;;;;5.35;2.85;;;24.50;84.60;;;;;;5117750;28;20103;-83
2023/08/02 10:59:24;;;;;;;5.10;2.85;;;25.00;84.00;;;;;;5100828;28;20031;-83
2023/08/02 11:02:12;;;;;;;7.05;2.90;;;25.60;82.30;;;;;;5118859;28;20316;-83
2023/08/02 11:04:45;;;;;;;8.88;2.83;;;25.50;81.00;;;;;;5118766;28;20024;-82
2023/08/02 11:07:12;;;;;;;5.57;2.88;;;25.50;81.90;;;;;;5099891;28;20069;-83
2023/08/02 11:09:37;;;;;;;6.43;3.00;;;24.90;84.10;;;;;;5113100;28;20016;-84
2023/08/02 11:12:14;;;;;;;6.03;3.13;;;24.60;84.30;;;;;;5118585;28;20304;-83
2023/08/02 11:14:41;;;;;;;6.53;3.13;;;23.80;85.30;;;;;;5118624;28;20026;-84
2023/08/02 11:17:07;;;;;;;6.72;3.03;;;23.90;85.60;;;;;;5116988;28;20023;-87
2023/08/02 11:19:35;;;;;;;8.57;2.97;;;24.10;85.30;;;;;;5135718;27;20020;-86
2023/08/02 11:22:01;;;;;;;5.47;2.75;;;24.00;85.30;;;;;;5138031;27;20289;-84
2023/08/02 11:24:27;;;;;;;5.15;2.92;;;24.20;85.10;;;;;;5132375;27;20027;-84
2023/08/02 11:26:57;;;;;;;5.63;3.05;;;24.80;83.80;;;;;;5118372;28;20038;-80
2023/08/02 11:29:23;;;;;;;5.43;3.30;;;25.10;82.40;;;;;;5118469;28;20070;-83
2023/08/02 11:31:53;;;;;;;6.18;2.80;;;25.30;83.70;;;;;;5117507;28;20020;-82
2023/08/02 11:34:20;;;;;;;6.22;2.70;;;25.90;83.50;;;;;;5131990;27;20450;-82
2023/08/02 11:36:47;;;;;;;5.35;2.70;;;26.50;80.60;;;;;;5126293;27;20027;-83
2023/08/02 11:39:17;;;;;;;5.32;2.50;;;26.50;78.40;;;;;;5131835;27;20035;-80
2023/08/02 11:41:43;;;;;;;6.30;2.92;;;25.70;80.30;;;;;;5117645;28;20383;-83
2023/08/02 11:44:18;;;;;;;5.30;2.65;;;24.80;82.40;;;;;;5098677;28;20036;-85
2023/08/02 11:46:55;;;;;;;5.03;2.78;;;24.40;83.50;;;;;;5114486;28;20073;-83
2023/08/02 11:49:21;;;;;;;6.50;3.10;;;24.20;84.00;;;;;;5112612;28;20033;-83
2023/08/02 11:51:47;;;;;;;5.38;3.15;;;24.40;83.90;;;;;;5116227;28;20098;-84
2023/08/02 11:54:16;;;;;;;5.80;2.83;;;24.50;83.90;;;;;;5116548;28;20313;-87
2023/08/02 11:56:42;;;;;;;5.97;3.00;;;24.70;83.20;;;;;;5099282;28;20024;-82
2023/08/02 11:59:09;;;;;;;6.35;3.08;;;24.60;83.80;;;;;;5099164;28;20064;-84
2023/08/02 12:01:35;;;;;;;5.93;2.60;;;24.80;83.50;;;;;;5099504;28;20340;-83
2023/08/02 12:04:03;;;;;;;6.47;2.85;;;25.40;82.20;;;;;;5128849;27;20052;-84
2023/08/02 12:06:48;;;;;;;8.68;2.97;;;25.20;81.10;;;;;;5136099;27;20026;-83
2023/08/02 12:09:14;;;;;;;4.82;2.40;;;25.20;81.60;;;;;;5126154;27;20024;-84
2023/08/02 12:11:44;;;;;;;5.45;2.70;;;25.50;81.90;;;;;;5097706;28;20043;-86
2023/08/02 12:14:13;;;;;;;5.97;2.85;;;26.10;79.30;;;;;;5115676;28;20024;-86
2023/08/02 12:16:43;;;;;;;5.32;2.60;;;26.00;79.60;;;;;;5116663;28;20537;-84
2023/08/02 12:19:10;;;;;;;5.93;2.55;;;25.80;79.60;;;;;;5116624;28;20028;-86
2023/08/02 12:21:37;;;;;;;6.18;2.78;;;25.10;81.00;;;;;;5114418;28;20027;-89
2023/08/02 12:24:16;;;;;;;7.57;2.80;;;24.90;82.10;;;;;;5117020;28;20094;-88
2023/08/02 12:26:42;;;;;;;4.95;2.70;;;25.10;82.10;;;;;;5115672;28;20027;-87
2023/08/02 12:29:08;;;;;;;4.22;2.35;;;25.40;81.60;;;;;;5115368;28;20467;-85
2023/08/02 12:31:44;;;;;;;6.07;2.80;;;25.50;82.10;;;;;;5133836;27;20103;-82
2023/08/02 12:34:10;;;;;;;6.63;2.90;;;25.80;80.10;;;;;;5118203;27;20050;-83
2023/08/02 12:36:36;;;;;;;7.05;3.10;;;25.70;81.20;;;;;;5098086;28;20023;-83
2023/08/02 12:39:01;;;;;;;5.15;2.88;;;25.60;80.80;;;;;;5099148;28;20416;-87
2023/08/02 12:41:30;;;;;;;6.15;2.70;;;25.90;80.00;;;;;;5094715;28;20039;-86
2023/08/02 12:43:56;;;;;;;4.60;2.50;;;26.20;79.00;;;;;;5103914;28;20030;-84
2023/08/02 12:46:22;;;;;;;5.63;2.92;;;26.60;78.10;;;;;;5076340;28;20032;-86
2023/08/02 12:48:49;;;;;;;5.45;2.83;;;26.50;78.70;;;;;;5109227;28;20029;-85
2023/08/02 12:51:15;;;;;;;6.57;2.78;;;27.00;77.50;;;;;;5106230;28;20031;-84
2023/08/02 12:53:41;;;;;;;5.75;2.63;;;27.40;76.20;;;;;;5103871;28;20044;-85
2023/08/02 12:56:07;;;;;;;5.53;2.20;;;27.70;74.90;;;;;;5074721;28;20328;-86
2023/08/02 12:58:33;;;;;;;5.20;2.47;;;27.10;76.00;;;;;;5097450;28;20029;-85
2023/08/02 13:00:58;;;;;;;5.53;2.40;;;27.00;77.50;;;;;;5094822;28;20035;-84
2023/08/02 13:03:24;;;;;;;5.72;2.85;;;27.30;77.00;;;;;;5093530;28;20093;-85
2023/08/02 13:05:50;;;;;;;4.40;2.30;;;27.10;77.00;;;;;;5095341;28;20055;-85
2023/08/02 13:08:17;;;;;;;4.93;2.72;;;26.60;78.00;;;;;;5094839;28;20028;-86
2023/08/02 13:10:43;;;;;;;4.75;2.60;;;25.90;78.70;;;;;;5095758;28;20027;-85
2023/08/02 13:13:08;;;;;;;5.13;2.88;;;25.70;79.20;;;;;;5094745;28;20348;-85
2023/08/02 13:15:34;;;;;;;4.82;2.60;;;25.50;80.70;;;;;;5094572;28;20035;-86
2023/08/02 13:18:00;;;;;;;5.35;2.80;;;25.70;81.10;;;;;;5096290;28;20028;-85
2023/08/02 13:20:27;;;;;;;5.18;2.95;;;26.00;80.30;;;;;;5095255;28;20043;-85
2023/08/02 13:22:53;;;;;;;4.95;2.60;;;26.40;78.20;;;;;;5094337;28;20107;-85
2023/08/02 13:25:19;;;;;;;6.80;2.67;;;26.80;77.70;;;;;;5095071;28;20542;-85
2023/08/02 13:27:44;;;;;;;7.70;2.75;;;27.10;76.70;;;;;;5095082;28;20123;-86
2023/08/02 13:30:10;;;;;;;6.03;2.53;;;26.40;77.10;;;;;;5095115;28;20020;-84
2023/08/02 13:32:36;;;;;;;4.63;2.50;;;25.70;78.90;;;;;;5095393;28;20043;-84
2023/08/02 13:35:06;;;;;;;5.28;2.03;;;25.50;80.30;;;;;;5094804;28;20024;-86
2023/08/02 13:37:32;;;;;;;6.22;1.95;;;25.30;79.80;;;;;;5095241;28;20036;-85